Terminal Aerodrome Forecast
Issued by NWS Melbourne, FL

Current Version | Previous Version | Text Only | Print | Product List | Glossary On
Versions: 1 2 3 4 5 6 7 8 9 10 11 12 13
000
FTUS42 KMLB 310500
TAFVRB
TAF
KVRB 310537Z 3106/0106 02008KT P6SM FEW040 BKN250
     FM311400 06014G20KT P6SM SCT040 BKN250
     FM010000 08007KT P6SM SCT040 BKN250=

USA.gov is the U.S. government's official web portal to all federal, state and local government web resources and services.